createdAt,value
2017-03-03T00:00:16.480Z,27.34
2017-03-03T00:01:16.437Z,27.64
2017-03-03T00:02:16.504Z,27.64
2017-03-03T00:03:16.451Z,27.53
2017-03-03T00:04:16.515Z,27.62
2017-03-03T00:05:16.466Z,27.64
2017-03-03T00:06:16.581Z,27.62
2017-03-03T00:07:16.477Z,27.64
2017-03-03T00:08:16.483Z,27.72
2017-03-03T00:09:16.540Z,27.73
2017-03-03T00:10:16.558Z,27.64
2017-03-03T00:11:16.604Z,27.44
2017-03-03T00:12:16.110Z,27.55
2017-03-03T00:13:16.119Z,27.35
2017-03-03T00:14:16.637Z,27.35
2017-03-03T00:15:16.579Z,27.35
2017-03-03T00:16:16.288Z,27.55
2017-03-03T00:17:16.598Z,27.55
2017-03-03T00:18:16.604Z,27.83
2017-03-03T00:19:16.561Z,27.83
2017-03-03T00:20:16.614Z,27.34
2017-03-03T00:21:16.573Z,27.53
2017-03-03T00:22:16.626Z,27.53
2017-03-03T00:23:16.631Z,28.02
2017-03-03T00:24:16.649Z,27.92
2017-03-03T00:25:16.646Z,28.11
2017-03-03T00:26:16.655Z,27.92
2017-03-03T00:27:16.607Z,27.82
2017-03-03T00:28:16.668Z,27.62
2017-03-03T00:29:16.723Z,27.34
2017-03-03T00:30:16.683Z,27.44
2017-03-03T00:31:16.336Z,27.92
2017-03-03T00:32:16.693Z,27.92
2017-03-03T00:33:16.647Z,27.14
2017-03-03T00:34:16.656Z,27.24
2017-03-03T00:35:16.661Z,28.02
2017-03-03T00:36:16.715Z,27.44
2017-03-03T00:37:16.731Z,27.82
2017-03-03T00:38:16.734Z,27.44
2017-03-03T00:39:16.698Z,27.62
2017-03-03T00:40:16.705Z,27.62
2017-03-03T00:41:16.702Z,27.62
2017-03-03T00:42:16.722Z,27.53
2017-03-03T00:43:16.779Z,27.53
2017-03-03T00:44:16.769Z,27.44
2017-03-03T00:45:16.830Z,28.02
2017-03-03T00:46:16.798Z,27.92
2017-03-03T00:47:16.447Z,27.53
2017-03-03T00:48:16.352Z,27.62
2017-03-03T00:49:16.757Z,27.53
2017-03-03T00:50:16.862Z,26.95
2017-03-03T00:51:17.570Z,27.72
2017-03-03T00:52:16.843Z,27.62
2017-03-03T00:53:16.789Z,27.24
2017-03-03T00:54:16.836Z,27.34
2017-03-03T00:55:16.893Z,27.53
2017-03-03T00:56:16.802Z,27.62
2017-03-03T00:57:16.810Z,27.34
2017-03-03T00:58:16.876Z,27.34
2017-03-03T00:59:16.825Z,27.14
2017-03-03T01:00:16.927Z,27.14
2017-03-03T01:01:16.887Z,27.34
2017-03-03T01:02:16.991Z,27.34
2017-03-03T01:03:16.903Z,27.14
2017-03-03T01:04:16.909Z,26.76
2017-03-03T01:05:16.858Z,26.86
2017-03-03T01:06:16.954Z,26.86
2017-03-03T01:07:16.876Z,26.97
2017-03-03T01:08:16.540Z,26.87
2017-03-03T01:09:16.950Z,26.87
2017-03-03T01:10:16.947Z,26.87
2017-03-03T01:11:16.954Z,26.87
2017-03-03T01:12:16.840Z,26.86
2017-03-03T01:17:03.487Z,26.77
2017-03-03T01:18:03.484Z,26.95
2017-03-03T01:19:03.489Z,26.86
2017-03-03T01:20:03.448Z,26.86
2017-03-03T01:21:03.455Z,27.34
2017-03-03T01:22:03.315Z,27.14
2017-03-03T01:23:03.479Z,27.34
2017-03-03T01:24:03.475Z,27.24
2017-03-03T01:25:03.491Z,27.34
2017-03-03T01:26:03.498Z,27.14
2017-03-03T01:27:03.545Z,27.14
2017-03-03T01:28:03.500Z,27.14
2017-03-03T01:29:03.506Z,27.14
2017-03-03T01:30:03.522Z,27.34
2017-03-03T01:31:03.569Z,27.04
2017-03-03T01:32:03.573Z,27.14
2017-03-03T01:33:03.582Z,27.34
2017-03-03T01:34:03.144Z,27.14
2017-03-03T01:35:04.554Z,27.24
2017-03-03T01:36:03.552Z,27.04
2017-03-03T01:37:03.613Z,26.76
2017-03-03T01:38:03.222Z,26.86
2017-03-03T01:39:03.589Z,26.76
2017-03-03T01:40:03.590Z,26.86
2017-03-03T01:41:03.582Z,26.76
2017-03-03T01:42:03.587Z,26.86
2017-03-03T01:43:03.696Z,26.66
2017-03-03T01:44:04.701Z,26.86
2017-03-03T01:45:03.711Z,26.76
2017-03-03T01:46:03.867Z,26.66
2017-03-03T01:47:03.673Z,26.66
2017-03-03T01:48:03.677Z,26.76
2017-03-03T01:49:03.637Z,26.56
2017-03-03T01:50:03.690Z,26.77
2017-03-03T01:51:03.656Z,26.56
2017-03-03T01:52:03.256Z,26.76
2017-03-03T01:53:03.715Z,26.56
2017-03-03T01:54:03.669Z,26.28
2017-03-03T01:55:04.047Z,26.46
2017-03-03T01:56:04.904Z,26.28
2017-03-03T01:57:03.686Z,26.46
2017-03-03T01:58:03.706Z,26.86
2017-03-03T01:59:03.700Z,26.86
2017-03-03T02:00:03.758Z,26.76
2017-03-03T02:01:03.765Z,26.95
2017-03-03T02:02:03.734Z,27.04
2017-03-03T02:03:03.777Z,27.14
2017-03-03T02:04:03.734Z,27.04
2017-03-03T02:05:03.791Z,26.95
2017-03-03T02:06:03.804Z,27.04
2017-03-03T02:07:03.354Z,27.14
2017-03-03T02:08:03.811Z,27.04
2017-03-03T02:09:03.815Z,26.86
2017-03-03T02:10:04.684Z,26.76
2017-03-03T02:11:03.403Z,26.66
2017-03-03T02:12:03.836Z,27.14
2017-03-03T02:13:03.794Z,26.86
2017-03-03T02:14:03.798Z,26.95
2017-03-03T02:15:04.108Z,26.95
2017-03-03T02:16:03.415Z,26.66
2017-03-03T02:17:03.871Z,26.86
2017-03-03T02:18:03.887Z,26.66
2017-03-03T02:19:04.631Z,26.76
2017-03-03T02:20:03.885Z,27.14
2017-03-03T02:21:04.310Z,26.76
2017-03-03T02:22:03.903Z,26.76
2017-03-03T02:23:03.859Z,27.04
2017-03-03T02:24:03.861Z,27.04
2017-03-03T02:25:03.883Z,26.76
2017-03-03T02:26:03.889Z,26.76
2017-03-03T02:27:03.882Z,26.76
2017-03-03T02:28:03.541Z,27.14
2017-03-03T02:29:03.897Z,26.56
2017-03-03T02:30:04.653Z,26.86
2017-03-03T02:31:03.976Z,26.56
2017-03-03T02:32:03.972Z,26.66
2017-03-03T02:33:03.930Z,26.66
2017-03-03T02:34:03.533Z,26.76
2017-03-03T02:35:03.945Z,26.76
2017-03-03T02:36:03.545Z,26.76
2017-03-03T02:37:04.004Z,26.56
2017-03-03T02:38:03.960Z,26.46
2017-03-03T02:39:03.564Z,26.56
2017-03-03T02:40:03.981Z,26.76
2017-03-03T02:41:04.527Z,26.56
2017-03-03T02:42:04.038Z,26.56
2017-03-03T02:43:03.995Z,26.37
2017-03-03T02:44:04.059Z,26.56
2017-03-03T02:45:04.017Z,26.56
2017-03-03T02:46:04.022Z,26.56
2017-03-03T02:47:04.066Z,26.46
2017-03-03T02:48:04.072Z,26.56
2017-03-03T02:49:04.029Z,26.66
2017-03-03T02:50:04.101Z,26.28
2017-03-03T02:51:04.093Z,26.56
2017-03-03T02:52:04.301Z,26.66
2017-03-03T02:53:04.054Z,26.56
2017-03-03T02:54:04.062Z,26.37
2017-03-03T02:55:03.670Z,26.28
2017-03-03T02:56:04.126Z,26.56
2017-03-03T02:57:04.130Z,26.46
2017-03-03T02:58:03.809Z,26.56
2017-03-03T02:59:03.755Z,26.28
2017-03-03T03:00:04.114Z,26.37
2017-03-03T03:01:04.115Z,26.56
2017-03-03T03:02:04.217Z,26.46
2017-03-03T03:03:04.121Z,26.37
2017-03-03T03:04:03.731Z,26.37
2017-03-03T03:05:05.082Z,26.18
2017-03-03T03:06:04.188Z,26.66
2017-03-03T03:07:04.201Z,26.46
2017-03-03T03:08:04.207Z,26.66
2017-03-03T03:09:04.218Z,26.56
2017-03-03T03:10:03.768Z,26.28
2017-03-03T03:11:04.186Z,25.98
2017-03-03T03:12:03.784Z,26.37
2017-03-03T03:13:05.745Z,26.18
2017-03-03T03:14:04.244Z,26.37
2017-03-03T03:15:04.198Z,26.28
2017-03-03T03:16:05.304Z,26.28
2017-03-03T03:17:04.271Z,26.18
2017-03-03T03:18:04.230Z,26.28
2017-03-03T03:19:04.274Z,26.18
2017-03-03T03:20:04.332Z,26.08
2017-03-03T03:21:04.241Z,26.18
2017-03-03T03:22:04.245Z,26.18
2017-03-03T03:23:04.251Z,26.18
2017-03-03T03:24:04.315Z,26.18
2017-03-03T03:25:04.327Z,26.18
2017-03-03T03:26:04.269Z,25.98
2017-03-03T03:27:04.875Z,26.08
2017-03-03T03:28:04.333Z,26.08
2017-03-03T03:29:04.300Z,25.89
2017-03-03T03:30:04.346Z,25.89
2017-03-03T03:31:04.348Z,25.89
2017-03-03T03:32:03.907Z,26.08
2017-03-03T03:33:03.916Z,25.98
2017-03-03T03:34:04.323Z,25.89
2017-03-03T03:35:04.626Z,25.98
2017-03-03T03:36:05.352Z,25.98
2017-03-03T03:37:04.338Z,26.08
2017-03-03T03:38:04.593Z,25.98
2017-03-03T03:39:04.458Z,25.98
2017-03-03T03:40:04.427Z,25.98
2017-03-03T03:41:04.463Z,25.98
2017-03-03T03:42:04.418Z,25.89
2017-03-03T03:43:04.375Z,25.98
2017-03-03T03:45:13.213Z,25.79
2017-03-03T03:46:13.220Z,26.08
2017-03-03T03:47:13.230Z,25.79
2017-03-03T03:48:13.246Z,26.08
2017-03-03T03:49:14.141Z,25.7
2017-03-03T03:50:13.247Z,26.08
2017-03-03T03:51:13.364Z,26.08
2017-03-03T03:52:13.262Z,26.08
2017-03-03T03:53:13.269Z,26.18
2017-03-03T03:54:13.270Z,25.79
2017-03-03T03:55:13.330Z,26.08
2017-03-03T03:56:13.392Z,25.7
2017-03-03T03:57:13.296Z,25.6
2017-03-03T03:58:13.397Z,26.08
2017-03-03T03:59:13.303Z,26.08
2017-03-03T04:00:14.013Z,25.79
2017-03-03T04:01:13.419Z,26.18
2017-03-03T04:02:13.374Z,25.98
2017-03-03T04:03:13.431Z,25.98
2017-03-03T04:04:13.390Z,26.08
2017-03-03T04:05:12.995Z,26.08
2017-03-03T04:06:13.350Z,26.18
2017-03-03T04:07:13.408Z,25.7
2017-03-03T04:08:13.377Z,25.79
2017-03-03T04:09:13.372Z,25.98
2017-03-03T04:10:13.376Z,25.89
2017-03-03T04:11:13.633Z,25.98
2017-03-03T04:12:12.991Z,25.89
2017-03-03T04:13:13.398Z,25.98
2017-03-03T04:14:13.055Z,25.98
2017-03-03T04:15:13.459Z,25.98
2017-03-03T04:16:13.420Z,26.18
2017-03-03T04:17:13.024Z,25.98
2017-03-03T04:18:13.479Z,26.08
2017-03-03T04:19:13.483Z,25.98
2017-03-03T04:20:13.439Z,26.08
2017-03-03T04:21:13.447Z,26.18
2017-03-03T04:22:13.503Z,25.98
2017-03-03T04:23:13.463Z,26.18
2017-03-03T04:24:13.080Z,25.97
2017-03-03T04:25:13.136Z,25.98
2017-03-03T04:26:13.585Z,26.18
2017-03-03T04:27:13.102Z,26.26
2017-03-03T04:28:13.545Z,26.18
2017-03-03T04:29:13.551Z,26.26
2017-03-03T04:30:13.155Z,26.28
2017-03-03T04:31:13.521Z,26.45
2017-03-03T04:32:13.168Z,26.35
2017-03-03T04:33:13.587Z,26.35
2017-03-03T04:34:13.841Z,26.17
2017-03-03T04:35:14.338Z,26.28
2017-03-03T04:36:13.544Z,26.26
2017-03-03T04:37:13.598Z,26.26
2017-03-03T04:38:13.558Z,26.26
2017-03-03T04:39:13.572Z,26.26
2017-03-03T04:40:13.671Z,26.26
2017-03-03T04:41:13.625Z,26.26
2017-03-03T04:42:13.651Z,26.26
2017-03-03T04:43:13.636Z,26.35
2017-03-03T04:44:14.597Z,26.26
2017-03-03T04:45:13.610Z,26.17
2017-03-03T04:46:13.707Z,26.17
2017-03-03T04:47:13.680Z,26.17
2017-03-03T04:48:13.631Z,26.17
2017-03-03T04:49:13.629Z,26.17
2017-03-03T04:50:13.688Z,26.17
2017-03-03T04:51:13.657Z,26.35
2017-03-03T04:52:13.356Z,25.97
2017-03-03T04:53:13.698Z,26.35
2017-03-03T04:54:13.662Z,25.97
2017-03-03T04:55:13.964Z,26.17
2017-03-03T04:56:13.724Z,25.97
2017-03-03T04:57:13.278Z,26.07
2017-03-03T04:58:13.684Z,26.26
2017-03-03T04:59:13.691Z,26.26
2017-03-03T05:00:13.799Z,26.26
2017-03-03T05:01:13.320Z,26.17
2017-03-03T05:02:13.709Z,26.07
2017-03-03T05:03:13.778Z,26.17
2017-03-03T05:04:13.727Z,26.07
2017-03-03T05:05:13.328Z,26.17
2017-03-03T05:06:13.785Z,26.17
2017-03-03T05:07:13.738Z,26.17
2017-03-03T05:08:13.748Z,26.26
2017-03-03T05:09:13.752Z,26.26
2017-03-03T05:10:13.761Z,26.17
2017-03-03T05:11:13.785Z,26.17
2017-03-03T05:12:13.773Z,26.17
2017-03-03T05:13:13.835Z,25.97
2017-03-03T05:14:13.837Z,26.17
2017-03-03T05:15:13.399Z,26.17
2017-03-03T05:16:13.451Z,26.17
2017-03-03T05:17:13.854Z,25.97
2017-03-03T05:18:13.871Z,25.97
2017-03-03T05:19:13.520Z,26.07
2017-03-03T05:20:13.826Z,26.17
2017-03-03T05:21:13.878Z,25.97
2017-03-03T05:22:13.840Z,26.07
2017-03-03T05:23:13.447Z,26.07
2017-03-03T05:24:14.155Z,26.17
2017-03-03T05:25:13.860Z,26.26
2017-03-03T05:26:13.918Z,26.26
2017-03-03T05:27:13.934Z,26.17
2017-03-03T05:28:13.479Z,26.17
2017-03-03T05:29:13.934Z,26.17
2017-03-03T05:30:14.641Z,26.26
2017-03-03T05:31:14.060Z,26.17
2017-03-03T05:32:13.902Z,26.26
2017-03-03T05:33:13.971Z,26.17
2017-03-03T05:34:13.965Z,26.17
2017-03-03T05:35:13.972Z,26.26
2017-03-03T05:36:13.977Z,26.26
2017-03-03T05:37:13.996Z,26.17
2017-03-03T05:38:13.945Z,26.17
2017-03-03T05:39:16.310Z,26.26
2017-03-03T05:40:13.963Z,26.17
2017-03-03T05:41:14.208Z,26.07
2017-03-03T05:42:13.966Z,26.17
2017-03-03T05:43:14.034Z,26.17
2017-03-03T05:44:13.980Z,26.17
2017-03-03T05:45:14.041Z,26.17
2017-03-03T05:46:13.992Z,26.17
2017-03-03T05:47:13.999Z,26.17
2017-03-03T05:48:14.069Z,26.07
2017-03-03T05:49:14.066Z,25.97
2017-03-03T05:50:14.918Z,26.17
2017-03-03T05:51:14.082Z,26.07
2017-03-03T05:52:14.033Z,25.97
2017-03-03T05:53:14.037Z,26.17
2017-03-03T05:54:14.093Z,26.07
2017-03-03T05:55:14.101Z,25.97
2017-03-03T05:56:14.166Z,25.97
2017-03-03T05:57:14.060Z,26.17
2017-03-03T05:58:14.074Z,25.97
2017-03-03T05:59:14.123Z,25.78
2017-03-03T06:00:14.130Z,25.87
2017-03-03T06:01:14.737Z,25.97
2017-03-03T06:02:13.742Z,25.97
2017-03-03T06:03:15.052Z,26.17
2017-03-03T06:04:14.156Z,25.97
2017-03-03T06:05:14.113Z,26.07
2017-03-03T06:06:13.772Z,25.97
2017-03-03T06:07:14.176Z,26.17
2017-03-03T06:08:14.144Z,25.97
2017-03-03T06:09:14.236Z,25.87
2017-03-03T06:10:14.148Z,25.97
2017-03-03T06:11:14.205Z,25.87
2017-03-03T06:12:14.506Z,25.97
2017-03-03T06:13:14.264Z,25.87
2017-03-03T06:14:14.171Z,25.87
2017-03-03T06:15:14.190Z,25.87
2017-03-03T06:16:14.234Z,25.97
2017-03-03T06:17:14.190Z,25.97
2017-03-03T06:18:14.198Z,25.97
2017-03-03T06:19:14.250Z,25.97
2017-03-03T06:20:14.259Z,25.97
2017-03-03T06:21:14.217Z,25.97
2017-03-03T06:22:14.219Z,25.87
2017-03-03T06:23:14.230Z,25.97
2017-03-03T06:24:14.235Z,25.97
2017-03-03T06:25:13.892Z,25.87
2017-03-03T06:26:14.309Z,25.78
2017-03-03T06:27:14.353Z,25.78
2017-03-03T06:28:14.307Z,25.68
2017-03-03T06:29:14.266Z,25.78
2017-03-03T06:30:14.273Z,25.97
2017-03-03T06:31:13.927Z,25.68
2017-03-03T06:32:14.286Z,25.97
2017-03-03T06:33:14.292Z,25.78
2017-03-03T06:34:14.601Z,25.97
2017-03-03T06:35:14.302Z,25.68
2017-03-03T06:36:15.332Z,26.17
2017-03-03T06:37:13.968Z,25.59
2017-03-03T06:38:14.322Z,25.78
2017-03-03T06:39:14.387Z,25.78
2017-03-03T06:40:14.485Z,25.87
2017-03-03T06:41:14.455Z,25.78
2017-03-03T06:42:14.346Z,25.78
2017-03-03T06:43:14.358Z,25.87
2017-03-03T06:44:14.414Z,25.68
2017-03-03T06:45:14.416Z,25.87
2017-03-03T06:46:14.385Z,25.59
2017-03-03T06:47:15.244Z,25.59
2017-03-03T06:48:14.436Z,25.59
2017-03-03T06:49:14.407Z,25.59
2017-03-03T06:50:14.400Z,25.59
2017-03-03T06:51:14.415Z,25.78
2017-03-03T06:52:14.462Z,25.68
2017-03-03T06:53:14.420Z,25.78
2017-03-03T06:54:14.536Z,25.87
2017-03-03T06:55:14.481Z,25.87
2017-03-03T06:56:14.436Z,25.87
2017-03-03T06:57:14.495Z,25.87
2017-03-03T06:58:15.506Z,25.68
2017-03-03T06:59:14.506Z,25.68
2017-03-03T07:00:14.467Z,25.87
2017-03-03T07:01:14.519Z,25.97
2017-03-03T07:02:14.534Z,25.78
2017-03-03T07:03:14.485Z,26.08
2017-03-03T07:04:14.594Z,25.97
2017-03-03T07:05:14.546Z,25.97
2017-03-03T07:06:14.502Z,25.98
2017-03-03T07:07:14.557Z,25.97
2017-03-03T07:08:14.515Z,25.87
2017-03-03T07:09:14.873Z,25.6
2017-03-03T07:10:14.633Z,25.59
2017-03-03T07:11:14.536Z,25.87
2017-03-03T07:12:14.541Z,25.4
2017-03-03T07:13:14.554Z,25.31
2017-03-03T07:14:14.604Z,25.4
2017-03-03T07:15:14.560Z,25.4
2017-03-03T07:16:14.617Z,25.4
2017-03-03T07:17:14.572Z,25.68
2017-03-03T07:18:15.686Z,25.59
2017-03-03T07:19:14.643Z,25.68
2017-03-03T07:20:15.042Z,25.78
2017-03-03T07:21:14.660Z,25.7
2017-03-03T07:22:14.660Z,25.87
2017-03-03T07:23:14.617Z,25.59
2017-03-03T07:24:14.696Z,25.59
2017-03-03T07:25:14.673Z,25.98
2017-03-03T07:26:14.634Z,25.78
2017-03-03T07:27:14.739Z,25.59
2017-03-03T07:28:14.696Z,25.59
2017-03-03T07:29:14.658Z,25.6
2017-03-03T07:30:14.670Z,25.49
2017-03-03T07:31:15.267Z,25.02
2017-03-03T07:32:14.670Z,25.5
2017-03-03T07:33:14.339Z,25.21
2017-03-03T07:34:14.696Z,24.92
2017-03-03T07:35:14.689Z,24.44
2017-03-03T07:36:14.696Z,24.35
2017-03-03T07:37:14.753Z,24.07
2017-03-03T07:38:14.724Z,23.98
2017-03-03T07:39:15.067Z,23.3
2017-03-03T07:40:15.821Z,23.02
2017-03-03T07:41:14.779Z,23.22
2017-03-03T07:42:15.086Z,23.13
2017-03-03T07:43:14.351Z,22.94
2017-03-03T07:44:29.520Z,22.84
2017-03-03T07:45:14.755Z,23.03
2017-03-03T07:46:14.769Z,22.85
2017-03-03T07:47:14.769Z,22.95
2017-03-03T07:48:14.776Z,22.56
2017-03-03T07:49:14.840Z,22.17
2017-03-03T07:50:14.789Z,22.27
2017-03-03T07:51:15.596Z,22.47
2017-03-03T07:52:14.803Z,22.37
2017-03-03T07:53:14.417Z,22.17
2017-03-03T07:54:14.821Z,22.47
2017-03-03T07:55:14.939Z,22.37
2017-03-03T07:56:14.487Z,22.37
2017-03-03T07:57:14.890Z,22.17
2017-03-03T07:58:14.898Z,22.38
2017-03-03T07:59:14.860Z,22.27
2017-03-03T08:00:14.868Z,22.57
2017-03-03T08:01:14.919Z,22.38
2017-03-03T08:02:15.428Z,22.27
2017-03-03T08:03:14.889Z,22.28
2017-03-03T08:04:14.889Z,22.48
2017-03-03T08:05:14.998Z,22.19
2017-03-03T08:06:14.915Z,22.67
2017-03-03T08:07:14.514Z,22.57
2017-03-03T08:08:14.932Z,22.57
2017-03-03T08:09:14.928Z,22.28
2017-03-03T08:10:15.334Z,21.99
2017-03-03T08:11:14.942Z,21.99
2017-03-03T08:12:14.950Z,21.89
2017-03-03T08:13:14.615Z,21.91
2017-03-03T08:14:15.265Z,22.1
2017-03-03T08:15:15.322Z,22
2017-03-03T08:16:15.079Z,22
2017-03-03T08:17:14.998Z,22.39
2017-03-03T08:18:14.998Z,22.19
2017-03-03T08:19:15.007Z,22.1
2017-03-03T08:20:15.075Z,22
2017-03-03T08:21:15.078Z,22.2
2017-03-03T08:22:15.092Z,22
2017-03-03T08:23:15.045Z,22.1
2017-03-03T08:24:15.805Z,22.2
2017-03-03T08:25:14.660Z,22.2
2017-03-03T08:26:15.178Z,22.2
2017-03-03T08:27:15.125Z,22.2
2017-03-03T08:28:15.136Z,22.2
2017-03-03T08:29:15.100Z,22.1
2017-03-03T08:30:15.156Z,22.1
2017-03-03T08:31:15.121Z,22
2017-03-03T08:32:15.141Z,22.1
2017-03-03T08:33:14.793Z,22
2017-03-03T08:34:14.845Z,22
2017-03-03T08:35:15.597Z,21.91
2017-03-03T08:36:14.758Z,22.49
2017-03-03T08:37:15.214Z,22.78
2017-03-03T08:38:14.888Z,23.16
2017-03-03T08:39:15.230Z,23.07
2017-03-03T08:40:15.268Z,22.97
2017-03-03T08:41:15.251Z,23.07
2017-03-03T08:42:15.204Z,23.07
2017-03-03T08:43:15.215Z,22.78
2017-03-03T08:44:15.272Z,23.07
2017-03-03T08:45:15.232Z,23.07
2017-03-03T08:46:15.500Z,23.16
2017-03-03T08:47:15.249Z,23.16
2017-03-03T08:48:15.309Z,23.36
2017-03-03T08:49:15.376Z,23.46
2017-03-03T08:50:15.275Z,23.26
2017-03-03T08:51:15.283Z,23.35
2017-03-03T08:52:14.897Z,23.46
2017-03-03T08:53:15.400Z,23.16
2017-03-03T08:54:14.919Z,23.36
2017-03-03T08:55:15.370Z,23.44
2017-03-03T08:56:15.332Z,22.88
2017-03-03T08:57:15.333Z,23.26
2017-03-03T08:58:15.392Z,23.55
2017-03-03T08:59:15.362Z,23.07
2017-03-03T09:00:15.425Z,23.16
2017-03-03T09:01:15.015Z,23.46
2017-03-03T09:02:15.026Z,23.36
2017-03-03T09:03:15.431Z,23.36
2017-03-03T09:04:15.387Z,23.07
2017-03-03T09:05:15.396Z,23.36
2017-03-03T09:06:15.455Z,22.97
2017-03-03T09:07:15.412Z,23.26
2017-03-03T09:08:15.472Z,23.26
2017-03-03T09:09:15.480Z,23.07
2017-03-03T09:10:15.049Z,23.46
2017-03-03T09:11:15.449Z,23.36
2017-03-03T09:12:15.469Z,23.46
2017-03-03T09:13:15.517Z,22.97
2017-03-03T09:15:15.542Z,22.79
2017-03-03T09:16:16.037Z,22.11
2017-03-03T09:17:15.495Z,22.58
2017-03-03T09:18:15.604Z,22.3
2017-03-03T09:19:15.514Z,22.39
2017-03-03T09:20:15.171Z,22.68
2017-03-03T09:21:16.633Z,22.2
2017-03-03T09:22:16.739Z,22.2
2017-03-03T09:23:15.561Z,23.16
2017-03-03T09:24:15.556Z,23.07
2017-03-03T09:25:15.564Z,22.78
2017-03-03T09:26:15.623Z,22.58
2017-03-03T09:27:15.680Z,22.39
2017-03-03T09:28:15.604Z,22.1
2017-03-03T09:29:15.601Z,22.2
2017-03-03T09:30:15.608Z,22.1
2017-03-03T09:31:15.663Z,21.81
2017-03-03T09:32:16.676Z,22.2
2017-03-03T09:33:15.689Z,22
2017-03-03T09:34:15.663Z,22.3
2017-03-03T09:35:15.297Z,21.81
2017-03-03T09:36:15.712Z,22
2017-03-03T09:37:15.666Z,22
2017-03-03T09:38:16.021Z,22.1
2017-03-03T09:39:15.685Z,22.1
2017-03-03T09:40:15.753Z,22.39
2017-03-03T09:41:16.620Z,23.06
2017-03-03T09:42:15.760Z,23.33
2017-03-03T09:43:16.366Z,23.24
2017-03-03T09:44:15.737Z,23.24
2017-03-03T09:45:15.743Z,23.14
2017-03-03T09:46:15.740Z,23.43
2017-03-03T09:47:15.797Z,23.24
2017-03-03T09:48:15.357Z,23.43
2017-03-03T09:49:15.817Z,23.25
2017-03-03T09:50:15.823Z,23.33
2017-03-03T09:51:15.865Z,23.43
2017-03-03T09:52:16.627Z,23.43
2017-03-03T09:53:17.043Z,23.33
2017-03-03T09:54:16.303Z,23.33
2017-03-03T09:55:15.880Z,23.24
2017-03-03T09:56:15.816Z,23.43
2017-03-03T09:57:15.424Z,23.05
2017-03-03T09:58:15.831Z,23.24
2017-03-03T09:59:15.938Z,23.33
2017-03-03T10:00:15.498Z,23.05
2017-03-03T10:01:15.957Z,23.72
2017-03-03T10:02:15.564Z,23.33
2017-03-03T10:03:16.841Z,23.33
2017-03-03T10:04:16.280Z,22.94
2017-03-03T10:05:16.641Z,23.03
2017-03-03T10:06:15.941Z,23.14
2017-03-03T10:07:15.502Z,23.71
2017-03-03T10:08:16.057Z,23.14
2017-03-03T10:09:15.582Z,23.05
2017-03-03T10:10:15.929Z,23.33
2017-03-03T10:11:15.932Z,23.33
2017-03-03T10:12:15.988Z,23.52
2017-03-03T10:13:15.955Z,23.42
2017-03-03T10:14:16.706Z,23.63
2017-03-03T10:15:16.016Z,23.52
2017-03-03T10:16:16.284Z,23.33
2017-03-03T10:17:16.279Z,23.72
2017-03-03T10:18:16.035Z,23.72
2017-03-03T10:19:15.992Z,24.02
2017-03-03T10:20:16.099Z,24.01
2017-03-03T10:21:15.667Z,24.02
2017-03-03T10:22:16.016Z,24.1
2017-03-03T10:23:16.022Z,24.11
2017-03-03T10:24:16.028Z,24.21
2017-03-03T10:25:17.207Z,23.82
2017-03-03T10:26:16.061Z,23.82
2017-03-03T10:27:16.354Z,24.11
2017-03-03T10:28:16.159Z,24.11
2017-03-03T10:29:16.081Z,24.11
2017-03-03T10:30:16.130Z,24.11
2017-03-03T10:31:16.132Z,24.21
2017-03-03T10:32:15.742Z,24.11
2017-03-03T10:33:16.150Z,24.4
2017-03-03T10:34:16.106Z,24.02
2017-03-03T10:35:16.164Z,24.21
2017-03-03T10:36:17.030Z,24.5
2017-03-03T10:37:16.137Z,24.1
2017-03-03T10:38:16.238Z,24.49
2017-03-03T10:39:16.196Z,24.19
2017-03-03T10:40:16.260Z,24.39
2017-03-03T10:41:16.266Z,24.58
2017-03-03T10:42:16.217Z,24.49
2017-03-03T10:43:16.176Z,24.49
2017-03-03T10:44:16.192Z,24.49
2017-03-03T10:45:16.241Z,24.49
2017-03-03T10:46:16.260Z,24.5
2017-03-03T10:47:16.927Z,24.69
2017-03-03T10:48:16.264Z,24.4
2017-03-03T10:49:16.221Z,24.21
2017-03-03T10:50:16.233Z,24.49
2017-03-03T10:51:16.259Z,24.58
2017-03-03T10:52:16.312Z,24.4
2017-03-03T10:53:16.305Z,24.29
2017-03-03T10:54:15.875Z,24.39
2017-03-03T10:55:16.267Z,24.29
2017-03-03T10:56:16.288Z,24.49
2017-03-03T10:57:16.283Z,24.4
2017-03-03T10:58:16.642Z,24.21
2017-03-03T10:59:16.349Z,24.4
2017-03-03T11:00:16.307Z,24.29
2017-03-03T11:01:16.371Z,24.49
2017-03-03T11:02:15.974Z,24.58
2017-03-03T11:03:16.331Z,24.11
2017-03-03T11:04:16.387Z,24.49
2017-03-03T11:05:16.350Z,24.4
2017-03-03T11:06:16.653Z,24.6
2017-03-03T11:07:16.462Z,24.68
2017-03-03T11:08:16.466Z,24.49
2017-03-03T11:09:16.424Z,24.11
2017-03-03T11:10:16.397Z,24.39
2017-03-03T11:11:16.389Z,24.29
2017-03-03T11:12:16.399Z,24.19
2017-03-03T11:13:17.407Z,24.29
2017-03-03T11:14:18.270Z,24.1
2017-03-03T11:15:16.473Z,24.19
2017-03-03T11:16:16.431Z,24.58
2017-03-03T11:17:16.438Z,24.19
2017-03-03T11:18:16.455Z,24.19
2017-03-03T11:19:16.502Z,24.49
2017-03-03T11:20:16.867Z,24.78
2017-03-03T11:21:16.472Z,24.58
2017-03-03T11:22:17.510Z,24.68
2017-03-03T11:23:16.483Z,24.68
2017-03-03T11:24:17.291Z,24.58
2017-03-03T11:25:16.551Z,24.78
2017-03-03T11:26:16.520Z,24.58
2017-03-03T11:27:16.814Z,24.68
2017-03-03T11:28:16.572Z,24.58
2017-03-03T11:29:16.532Z,24.68
2017-03-03T11:30:16.141Z,24.58
2017-03-03T11:31:16.557Z,24.68
2017-03-03T11:32:16.566Z,24.58
2017-03-03T11:33:17.365Z,24.68
2017-03-03T11:34:16.583Z,24.68
2017-03-03T11:35:17.179Z,24.58
2017-03-03T11:36:16.206Z,24.4
2017-03-03T11:37:16.203Z,24.58
2017-03-03T11:38:16.600Z,24.69
2017-03-03T11:39:16.660Z,24.6
2017-03-03T11:40:16.616Z,24.79
2017-03-03T11:41:16.275Z,24.58
2017-03-03T11:42:16.242Z,24.68
2017-03-03T11:43:17.992Z,24.6
2017-03-03T11:44:17.848Z,24.58
2017-03-03T11:45:16.256Z,24.97
2017-03-03T11:46:16.961Z,24.97
2017-03-03T11:47:16.291Z,25.07
2017-03-03T11:48:16.304Z,25.55
2017-03-03T11:49:16.353Z,25.07
2017-03-03T11:50:16.313Z,25.46
2017-03-03T11:51:16.354Z,25.46
2017-03-03T11:52:16.709Z,25.26
2017-03-03T11:53:16.719Z,25.07
2017-03-03T11:54:16.725Z,25.46
2017-03-03T11:55:18.687Z,25.36
2017-03-03T11:56:16.791Z,25.46
2017-03-03T11:57:16.808Z,25.36
2017-03-03T11:58:16.775Z,25.46
2017-03-03T11:59:16.414Z,25.26
2017-03-03T12:00:16.824Z,25.36
2017-03-03T12:01:16.432Z,25.36
2017-03-03T12:02:16.842Z,25.26
2017-03-03T12:03:16.796Z,25.26
2017-03-03T12:04:16.802Z,25.36
2017-03-03T12:05:16.817Z,25.36
2017-03-03T12:06:17.722Z,25.16
2017-03-03T12:07:16.841Z,25.16
2017-03-03T12:08:17.135Z,25.55
2017-03-03T12:09:16.850Z,25.54
2017-03-03T12:10:16.863Z,25.35
2017-03-03T12:11:16.509Z,25.46
2017-03-03T12:12:16.517Z,25.46
2017-03-03T12:13:17.574Z,25.65
2017-03-03T12:14:16.979Z,25.94
2017-03-03T12:15:16.890Z,25.93
2017-03-03T12:16:16.496Z,25.65
2017-03-03T12:17:17.556Z,25.73
2017-03-03T12:18:16.924Z,25.73
2017-03-03T12:19:17.131Z,25.73
2017-03-03T12:20:16.925Z,26.12
2017-03-03T12:21:16.937Z,26.03
2017-03-03T12:22:16.995Z,26.12
2017-03-03T12:23:16.948Z,26.03
2017-03-03T12:24:16.616Z,26.03
2017-03-03T12:25:16.583Z,26.04
2017-03-03T12:26:17.071Z,26.03
2017-03-03T12:27:17.030Z,25.83
2017-03-03T12:28:17.938Z,25.73
2017-03-03T12:29:16.996Z,25.73
2017-03-03T12:30:17.053Z,25.63
2017-03-03T12:31:17.070Z,25.63
2017-03-03T12:32:17.018Z,25.65
2017-03-03T12:33:17.024Z,25.93
2017-03-03T12:34:17.084Z,25.73
2017-03-03T12:35:17.045Z,26.03
2017-03-03T12:36:17.100Z,25.36
2017-03-03T12:37:17.057Z,25.44
2017-03-03T12:38:17.066Z,25.63
2017-03-03T12:39:17.773Z,25.63
2017-03-03T12:40:17.079Z,25.63
2017-03-03T12:41:17.137Z,26.03
2017-03-03T12:42:17.147Z,25.83
2017-03-03T12:43:17.217Z,25.63
2017-03-03T12:44:16.813Z,25.63
2017-03-03T12:45:17.170Z,25.73
2017-03-03T12:46:16.778Z,25.83
2017-03-03T12:47:17.141Z,25.83
2017-03-03T12:48:17.189Z,25.63
2017-03-03T12:49:17.208Z,25.83
2017-03-03T12:50:17.556Z,26.12
2017-03-03T12:51:16.819Z,25.83
2017-03-03T12:52:17.170Z,25.83
2017-03-03T12:53:17.227Z,25.73
2017-03-03T12:54:17.185Z,26.03
2017-03-03T12:55:17.245Z,25.93
2017-03-03T12:56:17.269Z,26.03
2017-03-03T12:57:17.207Z,25.93
2017-03-03T12:58:17.319Z,26.03
2017-03-03T12:59:16.828Z,26.03
2017-03-03T13:00:17.229Z,25.93
2017-03-03T13:01:18.751Z,26.03